createdAt,value
2023-02-07T00:01:41.224Z,102787.22
2023-02-07T00:04:10.073Z,102787.28
2023-02-07T00:06:38.778Z,102792.59
2023-02-07T00:09:08.750Z,102792.69
2023-02-07T00:11:41.045Z,102789.97
2023-02-07T00:14:12.002Z,102787.47
2023-02-07T00:16:41.182Z,102786.59
2023-02-07T00:19:10.163Z,102795.47
2023-02-07T00:21:38.661Z,102791.13
2023-02-07T00:24:07.949Z,102808.75
2023-02-07T00:26:36.463Z,102800.91
2023-02-07T00:29:05.624Z,102794.81
2023-02-07T00:31:35.308Z,102799.34
2023-02-07T00:34:06.415Z,102795.75
2023-02-07T00:36:35.812Z,102802.91
2023-02-07T00:39:08.519Z,102794.06
2023-02-07T00:41:37.330Z,102800.28
2023-02-07T00:44:06.381Z,102797.84
2023-02-07T00:46:35.740Z,102813.59
2023-02-07T00:49:05.212Z,102821.59
2023-02-07T00:51:33.952Z,102824.34
2023-02-07T00:54:02.955Z,102829.59
2023-02-07T00:56:32.026Z,102832.31
2023-02-07T00:59:01.076Z,102828.94
2023-02-07T01:01:29.852Z,102828.84
2023-02-07T01:03:59.066Z,102836.78
2023-02-07T01:06:28.535Z,102839.53
2023-02-07T01:09:01.556Z,102843.13
2023-02-07T01:11:30.416Z,102851.91
2023-02-07T01:14:02.916Z,102844.16
2023-02-07T01:16:34.879Z,102848.28
2023-02-07T01:19:08.346Z,102850.84
2023-02-07T01:21:36.718Z,102853.34
2023-02-07T01:24:07.371Z,102850.34
2023-02-07T01:26:36.920Z,102856.91
2023-02-07T01:29:06.060Z,102844.38
2023-02-07T01:31:34.945Z,102850.28
2023-02-07T01:34:05.636Z,102858.94
2023-02-07T01:36:34.366Z,102852.59
2023-02-07T01:39:04.136Z,102853.50
2023-02-07T01:41:36.020Z,102862.28
2023-02-07T01:44:29.316Z,102853.50
2023-02-07T01:46:57.857Z,102851.69
2023-02-07T01:49:31.536Z,102849.16
2023-02-07T01:52:12.136Z,102839.72
2023-02-07T01:54:41.233Z,102847.44
2023-02-07T01:57:12.463Z,102845.81
2023-02-07T01:59:44.213Z,102850.31
2023-02-07T02:02:15.996Z,102856.53
2023-02-07T02:04:48.045Z,102854.88
2023-02-07T02:07:17.278Z,102854.13
2023-02-07T02:09:46.174Z,102858.56
2023-02-07T02:12:50.411Z,102856.88
2023-02-07T02:16:09.885Z,102845.56
2023-02-07T02:19:05.243Z,102849.00
2023-02-07T02:21:59.234Z,102845.59
2023-02-07T02:24:59.583Z,102855.41
2023-02-07T02:27:49.555Z,102844.00
2023-02-07T02:30:36.658Z,102852.13
2023-02-07T02:33:25.432Z,102851.31
2023-02-07T02:36:10.561Z,102854.97
2023-02-07T02:38:47.127Z,102853.31
2023-02-07T02:41:22.215Z,102856.94
2023-02-07T02:44:13.113Z,102859.69
2023-02-07T02:46:42.260Z,102860.63
2023-02-07T02:49:13.524Z,102862.47
2023-02-07T02:51:42.481Z,102859.00
2023-02-07T02:54:31.987Z,102847.53
2023-02-07T02:57:34.367Z,102851.06
2023-02-07T03:00:29.385Z,102856.09
2023-02-07T03:03:07.165Z,102855.84
2023-02-07T03:05:57.815Z,102854.66
2023-02-07T03:08:35.333Z,102857.78
2023-02-07T03:11:11.650Z,102862.13
2023-02-07T03:14:29.563Z,102865.97
2023-02-07T03:17:21.944Z,102870.94
2023-02-07T03:20:37.965Z,102872.06
2023-02-07T03:23:07.148Z,102858.00
2023-02-07T03:25:35.834Z,102873.00
2023-02-07T03:28:07.014Z,102865.09
2023-02-07T03:30:35.521Z,102868.56
2023-02-07T03:33:10.514Z,102868.84
2023-02-07T03:36:08.794Z,102891.78
2023-02-07T03:38:37.602Z,102892.75
2023-02-07T03:41:11.492Z,102889.66
2023-02-07T03:43:40.192Z,102886.09
2023-02-07T03:46:12.377Z,102895.72
2023-02-07T03:48:41.365Z,102895.09
2023-02-07T03:51:09.734Z,102890.88
2023-02-07T03:53:38.406Z,102895.13
2023-02-07T03:56:07.147Z,102895.38
2023-02-07T03:58:35.834Z,102901.56
2023-02-07T04:01:04.316Z,102903.41
2023-02-07T04:03:33.258Z,102903.59
2023-02-07T04:06:01.779Z,102913.34
2023-02-07T04:08:30.491Z,102920.53
2023-02-07T04:11:00.180Z,102920.63
2023-02-07T04:13:29.489Z,102919.78
2023-02-07T04:15:58.311Z,102915.50
2023-02-07T04:18:27.714Z,102912.97
2023-02-07T04:21:06.645Z,102913.94
2023-02-07T04:23:35.864Z,102914.97
2023-02-07T04:26:04.679Z,102922.13
2023-02-07T04:28:33.658Z,102923.81
2023-02-07T04:31:02.305Z,102926.34
2023-02-07T04:33:31.218Z,102938.53
2023-02-07T04:36:01.714Z,102938.38
2023-02-07T04:38:30.779Z,102935.44
2023-02-07T04:41:05.795Z,102938.88
2023-02-07T04:43:35.723Z,102932.41
2023-02-07T04:46:05.321Z,102934.88
2023-02-07T04:48:34.612Z,102939.72
2023-02-07T04:51:03.252Z,102946.47
2023-02-07T04:53:32.193Z,102947.28
2023-02-07T04:56:00.993Z,102949.75
2023-02-07T04:58:29.872Z,102948.03
2023-02-07T05:00:58.533Z,102954.16
2023-02-07T05:03:27.438Z,102961.28
2023-02-07T05:05:56.027Z,102963.81
2023-02-07T05:08:26.285Z,102965.56
2023-02-07T05:10:56.010Z,102976.03
2023-02-07T05:13:25.179Z,102976.72
2023-02-07T05:15:53.764Z,102975.78
2023-02-07T05:18:22.786Z,102973.84
2023-02-07T05:20:53.363Z,102985.88
2023-02-07T05:23:22.328Z,102988.31
2023-02-07T05:25:50.930Z,102994.47
2023-02-07T05:28:19.986Z,102997.47
2023-02-07T05:30:48.686Z,103005.06
2023-02-07T05:33:17.420Z,102998.59
2023-02-07T05:35:46.422Z,103004.56
2023-02-07T05:38:17.837Z,103005.28
2023-02-07T05:40:46.428Z,103007.69
2023-02-07T05:43:15.130Z,103026.97
2023-02-07T05:45:45.840Z,103031.09
2023-02-07T05:48:14.759Z,103021.91
2023-02-07T05:50:43.088Z,103027.75
2023-02-07T05:53:11.804Z,103027.66
2023-02-07T05:55:40.420Z,103035.53
2023-02-07T05:58:09.334Z,103028.97
2023-02-07T06:00:37.831Z,103036.75
2023-02-07T06:03:06.582Z,103043.06
2023-02-07T06:05:35.398Z,103049.53
2023-02-07T06:08:04.332Z,103053.59
2023-02-07T06:10:33.370Z,103058.31
2023-02-07T06:13:02.151Z,103062.41
2023-02-07T06:15:30.681Z,103060.56
2023-02-07T06:17:59.471Z,103062.78
2023-02-07T06:20:27.901Z,103057.19
2023-02-07T06:22:56.822Z,103050.06
2023-02-07T06:25:25.258Z,103052.09
2023-02-07T06:27:54.154Z,103061.09
2023-02-07T06:30:23.002Z,103060.31
2023-02-07T06:32:51.712Z,103054.75
2023-02-07T06:35:20.073Z,103052.84
2023-02-07T06:37:48.973Z,103053.03
2023-02-07T06:40:17.684Z,103051.66
2023-02-07T06:42:46.786Z,103051.81
2023-02-07T06:45:15.284Z,103057.25
2023-02-07T06:47:44.015Z,103065.59
2023-02-07T06:50:12.379Z,103058.03
2023-02-07T06:52:41.114Z,103058.22
2023-02-07T06:55:09.594Z,103053.06
2023-02-07T06:57:38.297Z,103056.03
2023-02-07T07:00:07.448Z,103049.38
2023-02-07T07:02:36.234Z,103057.41
2023-02-07T07:05:06.701Z,103058.78
2023-02-07T07:07:35.457Z,103063.28
2023-02-07T07:10:04.305Z,103071.50
2023-02-07T07:12:33.297Z,103069.75
2023-02-07T07:15:01.695Z,103074.38
2023-02-07T07:17:30.457Z,103075.41
2023-02-07T07:20:00.006Z,103095.06
2023-02-07T07:22:28.758Z,103100.75
2023-02-07T07:24:57.160Z,103102.56
2023-02-07T07:27:26.242Z,103091.25
2023-02-07T07:29:54.632Z,103085.22
2023-02-07T07:32:33.538Z,103087.94
2023-02-07T07:35:03.359Z,103089.06
2023-02-07T07:37:32.201Z,103085.81
2023-02-07T07:40:00.671Z,103088.47
2023-02-07T07:42:29.458Z,103093.91
2023-02-07T07:45:13.553Z,103088.03
2023-02-07T07:47:42.409Z,103097.75
2023-02-07T07:50:10.926Z,103090.81
2023-02-07T07:52:39.968Z,103097.13
2023-02-07T07:55:09.239Z,103095.50
2023-02-07T07:57:38.056Z,103091.22
2023-02-07T08:00:06.745Z,103092.28
2023-02-07T08:02:42.545Z,103086.31
2023-02-07T08:05:13.564Z,103097.78
2023-02-07T08:07:42.632Z,103095.28
2023-02-07T08:10:11.110Z,103087.28
2023-02-07T08:12:40.462Z,103078.66
2023-02-07T08:15:10.245Z,103084.09
2023-02-07T08:17:39.162Z,103082.44
2023-02-07T08:20:08.392Z,103065.69
2023-02-07T08:22:37.392Z,103074.47
2023-02-07T08:25:06.657Z,103053.41
2023-02-07T08:27:35.725Z,103050.94
2023-02-07T08:30:06.274Z,103045.75
2023-02-07T08:32:35.152Z,103052.66
2023-02-07T08:35:03.631Z,103050.13
2023-02-07T08:37:32.414Z,103041.38
2023-02-07T08:40:00.854Z,103055.44
2023-02-07T08:42:29.542Z,103060.78
2023-02-07T08:44:58.083Z,103059.94
2023-02-07T08:47:26.915Z,103057.41
2023-02-07T08:49:55.267Z,103048.66
2023-02-07T08:52:24.333Z,103050.28
2023-02-07T08:54:52.714Z,103056.50
2023-02-07T08:57:25.142Z,103051.34
2023-02-07T08:59:54.247Z,103051.34
2023-02-07T09:02:23.061Z,103044.34
2023-02-07T09:04:51.934Z,103033.91
2023-02-07T09:07:20.626Z,103056.59
2023-02-07T09:09:49.043Z,103054.88
2023-02-07T09:12:17.809Z,103048.66
2023-02-07T09:14:46.296Z,103043.25
2023-02-07T09:17:15.049Z,103037.19
2023-02-07T09:19:43.415Z,103037.03
2023-02-07T09:22:12.096Z,103033.50
2023-02-07T09:24:40.437Z,103028.22
2023-02-07T09:27:09.618Z,103022.91
2023-02-07T09:29:38.005Z,103021.19
2023-02-07T09:32:06.816Z,103016.00
2023-02-07T09:34:35.483Z,103026.38
2023-02-07T09:37:04.135Z,103014.25
2023-02-07T09:39:33.528Z,103025.56
2023-02-07T09:42:27.730Z,103018.56
2023-02-07T09:45:10.090Z,103026.28
2023-02-07T09:47:39.640Z,103023.63
2023-02-07T09:50:15.728Z,103014.78
2023-02-07T09:52:54.670Z,103022.91
2023-02-07T09:55:44.190Z,103009.56
2023-02-07T09:58:39.245Z,103021.94
2023-02-07T10:01:23.061Z,103013.97
2023-02-07T10:03:56.483Z,103010.47
2023-02-07T10:06:27.456Z,102996.31
2023-02-07T10:08:59.796Z,102996.47
2023-02-07T10:12:12.383Z,102991.13
2023-02-07T10:15:10.505Z,102990.25
2023-02-07T10:18:11.364Z,102984.19
2023-02-07T10:20:48.973Z,102966.03
2023-02-07T10:24:03.060Z,102977.91
2023-02-07T10:26:53.076Z,102979.88
2023-02-07T10:29:51.626Z,102961.47
2023-02-07T10:32:24.899Z,102960.41
2023-02-07T10:34:55.933Z,102966.94
2023-02-07T10:37:26.908Z,102974.66
2023-02-07T10:40:12.477Z,102967.03
2023-02-07T10:42:41.174Z,102948.28
2023-02-07T10:45:13.743Z,102947.84
2023-02-07T10:47:42.632Z,102952.59
2023-02-07T10:50:29.335Z,102935.59
2023-02-07T10:52:59.380Z,102946.50
2023-02-07T10:55:46.612Z,102931.31
2023-02-07T10:58:23.254Z,102934.91
2023-02-07T11:00:54.188Z,102922.50
2023-02-07T11:03:24.150Z,102923.34
2023-02-07T11:05:56.915Z,102921.56
2023-02-07T11:08:29.512Z,102911.03
2023-02-07T11:10:59.752Z,102902.31
2023-02-07T11:13:30.226Z,102904.97
2023-02-07T11:16:08.173Z,102905.03
2023-02-07T11:19:02.950Z,102896.16
2023-02-07T11:21:53.504Z,102900.72
2023-02-07T11:24:31.945Z,102880.56
2023-02-07T11:27:08.026Z,102885.84
2023-02-07T11:29:47.058Z,102887.63
2023-02-07T11:32:16.104Z,102880.72
2023-02-07T11:34:57.058Z,102885.16
2023-02-07T11:37:34.451Z,102888.81
2023-02-07T11:40:44.684Z,102898.53
2023-02-07T11:43:18.184Z,102898.63
2023-02-07T11:45:52.587Z,102886.53
2023-02-07T11:48:30.070Z,102893.44
2023-02-07T11:51:00.526Z,102886.34
2023-02-07T11:53:56.463Z,102879.38
2023-02-07T11:56:38.549Z,102857.56
2023-02-07T11:59:12.649Z,102861.59
2023-02-07T12:01:42.137Z,102873.22
2023-02-07T12:04:37.794Z,102869.75
2023-02-07T12:07:21.552Z,102861.88
2023-02-07T12:09:56.339Z,102857.56
2023-02-07T12:13:03.240Z,102844.34
2023-02-07T12:15:52.724Z,102847.00
2023-02-07T12:18:41.501Z,102843.53
2023-02-07T12:21:22.785Z,102835.69
2023-02-07T12:24:00.742Z,102843.44
2023-02-07T12:26:53.504Z,102825.47
2023-02-07T12:29:49.625Z,102815.03
2023-02-07T12:32:54.925Z,102807.66
2023-02-07T12:36:13.891Z,102809.13
2023-02-07T12:38:50.721Z,102802.78
2023-02-07T12:41:57.405Z,102805.38
2023-02-07T12:44:52.740Z,102799.19
2023-02-07T12:47:53.568Z,102787.69
2023-02-07T12:51:00.111Z,102788.59
2023-02-07T12:53:53.709Z,102785.47
2023-02-07T12:57:02.071Z,102788.59
2023-02-07T12:59:44.425Z,102796.09
2023-02-07T13:02:45.334Z,102796.34
2023-02-07T13:05:30.492Z,102793.25
2023-02-07T13:08:13.877Z,102785.84
2023-02-07T13:11:20.955Z,102781.16
2023-02-07T13:14:26.950Z,102789.03
2023-02-07T13:17:15.859Z,102789.84
2023-02-07T13:19:57.005Z,102782.75
2023-02-07T13:22:34.331Z,102783.66
2023-02-07T13:25:02.949Z,102777.56
2023-02-07T13:27:32.068Z,102766.31
2023-02-07T13:30:01.438Z,102760.13
2023-02-07T13:32:30.235Z,102768.88
2023-02-07T13:35:08.140Z,102762.72
2023-02-07T13:38:15.652Z,102762.81
2023-02-07T13:41:12.157Z,102741.72
2023-02-07T13:44:11.145Z,102742.53
2023-02-07T13:47:23.535Z,102741.78
2023-02-07T13:50:10.705Z,102727.03
2023-02-07T13:52:59.117Z,102729.63
2023-02-07T13:55:41.882Z,102737.66
2023-02-07T13:58:53.090Z,102734.22
2023-02-07T14:01:26.420Z,102721.16
2023-02-07T14:04:13.436Z,102725.56
2023-02-07T14:06:46.952Z,102715.00
2023-02-07T14:09:34.212Z,102715.00
2023-02-07T14:12:28.850Z,102723.00
2023-02-07T14:15:18.896Z,102715.97
2023-02-07T14:18:01.185Z,102711.53
2023-02-07T14:20:40.702Z,102702.06
2023-02-07T14:23:19.264Z,102705.34
2023-02-07T14:25:47.888Z,102708.97
2023-02-07T14:28:36.546Z,102706.38
2023-02-07T14:31:23.791Z,102701.91
2023-02-07T14:34:14.998Z,102707.31
2023-02-07T14:36:43.642Z,102702.97
2023-02-07T14:39:18.286Z,102710.94
2023-02-07T14:41:51.488Z,102698.88
2023-02-07T14:44:37.086Z,102692.56
2023-02-07T14:47:07.389Z,102690.72
2023-02-07T14:49:47.979Z,102691.00
2023-02-07T14:52:36.749Z,102698.88
2023-02-07T14:55:36.843Z,102693.59
2023-02-07T14:58:09.385Z,102686.88
2023-02-07T15:01:04.976Z,102698.16
2023-02-07T15:03:34.969Z,102694.72
2023-02-07T15:06:05.234Z,102683.41
2023-02-07T15:08:38.049Z,102678.19
2023-02-07T15:11:12.777Z,102683.47
2023-02-07T15:13:48.395Z,102678.31
2023-02-07T15:16:25.205Z,102681.84
2023-02-07T15:19:00.827Z,102667.84
2023-02-07T15:21:39.569Z,102666.25
2023-02-07T15:24:33.067Z,102660.03
2023-02-07T15:27:06.061Z,102668.09
2023-02-07T15:29:39.440Z,102659.47
2023-02-07T15:32:46.386Z,102674.16
2023-02-07T15:35:27.229Z,102659.34
2023-02-07T15:38:15.133Z,102667.56
2023-02-07T15:40:43.786Z,102666.31
2023-02-07T15:43:34.940Z,102652.78
2023-02-07T15:46:11.712Z,102657.75
2023-02-07T15:48:55.446Z,102644.28
2023-02-07T15:51:26.684Z,102649.31
2023-02-07T15:54:01.750Z,102649.19
2023-02-07T15:56:30.279Z,102645.72
2023-02-07T15:59:03.521Z,102640.56
2023-02-07T16:01:32.456Z,102646.88
2023-02-07T16:04:02.935Z,102645.28
2023-02-07T16:06:32.454Z,102658.41
2023-02-07T16:09:02.538Z,102655.75
2023-02-07T16:11:30.989Z,102658.16
2023-02-07T16:14:25.800Z,102657.06
2023-02-07T16:16:56.189Z,102655.28
2023-02-07T16:19:34.303Z,102653.03
2023-02-07T16:22:22.022Z,102670.59
2023-02-07T16:24:50.909Z,102663.59
2023-02-07T16:27:27.538Z,102657.13
2023-02-07T16:29:56.680Z,102672.78
2023-02-07T16:32:25.618Z,102663.81
2023-02-07T16:35:00.018Z,102658.69
2023-02-07T16:37:29.317Z,102667.47
2023-02-07T16:39:58.011Z,102663.72
2023-02-07T16:42:26.458Z,102680.19
2023-02-07T16:44:55.334Z,102683.69
2023-02-07T16:47:24.045Z,102696.69
2023-02-07T16:49:53.103Z,102707.44
2023-02-07T16:52:21.734Z,102708.53
2023-02-07T16:54:50.738Z,102720.16
2023-02-07T16:57:19.389Z,102721.88
2023-02-07T16:59:48.084Z,102722.00
2023-02-07T17:02:16.881Z,102718.69
2023-02-07T17:04:46.018Z,102722.84
2023-02-07T17:07:14.663Z,102717.16
2023-02-07T17:09:45.098Z,102720.03
2023-02-07T17:12:15.132Z,102733.84
2023-02-07T17:14:43.912Z,102738.25
2023-02-07T17:17:14.814Z,102734.00
2023-02-07T17:19:47.587Z,102737.28
2023-02-07T17:22:16.073Z,102741.13
2023-02-07T17:24:46.571Z,102744.19
2023-02-07T17:27:15.059Z,102744.19
2023-02-07T17:29:45.428Z,102750.50
2023-02-07T17:32:14.418Z,102743.13
2023-02-07T17:34:43.678Z,102744.06
2023-02-07T17:37:12.452Z,102753.84
2023-02-07T17:39:41.474Z,102756.03
2023-02-07T17:42:10.197Z,102759.09
2023-02-07T17:44:40.444Z,102764.34
2023-02-07T17:47:10.385Z,102769.41
2023-02-07T17:49:39.401Z,102771.63
2023-02-07T17:52:09.370Z,102769.91
2023-02-07T17:54:38.381Z,102771.16
2023-02-07T17:57:07.111Z,102772.25
2023-02-07T17:59:36.292Z,102777.09
2023-02-07T18:02:05.124Z,102781.91
2023-02-07T18:04:34.183Z,102778.72
2023-02-07T18:07:03.263Z,102775.72
2023-02-07T18:09:32.713Z,102767.81
2023-02-07T18:12:03.812Z,102778.75
2023-02-07T18:14:32.902Z,102777.16
2023-02-07T18:17:01.745Z,102785.06
2023-02-07T18:19:32.874Z,102778.91
2023-02-07T18:22:01.727Z,102775.78
2023-02-07T18:24:30.849Z,102784.03
2023-02-07T18:26:59.543Z,102787.06
2023-02-07T18:29:28.520Z,102786.69
2023-02-07T18:31:57.247Z,102782.88
2023-02-07T18:34:26.286Z,102781.41
2023-02-07T18:36:54.951Z,102780.38
2023-02-07T18:39:23.932Z,102774.06
2023-02-07T18:41:52.648Z,102777.13
2023-02-07T18:44:21.672Z,102778.88
2023-02-07T18:46:50.742Z,102780.63
2023-02-07T18:49:19.706Z,102784.84
2023-02-07T18:51:48.425Z,102773.09
2023-02-07T18:54:17.501Z,102785.22
2023-02-07T18:56:52.378Z,102784.75
2023-02-07T18:59:22.347Z,102788.56
2023-02-07T19:01:53.641Z,102786.22
2023-02-07T19:04:22.837Z,102779.25
2023-02-07T19:06:52.384Z,102784.94
2023-02-07T19:09:22.632Z,102782.47
2023-02-07T19:11:52.226Z,102789.84
2023-02-07T19:14:23.235Z,102796.03
2023-02-07T19:16:54.232Z,102795.38
2023-02-07T19:19:24.472Z,102797.25
2023-02-07T19:21:53.232Z,102799.28
2023-02-07T19:24:22.597Z,102797.00
2023-02-07T19:26:54.338Z,102801.59
2023-02-07T19:29:34.002Z,102800.00
2023-02-07T19:32:08.272Z,102802.44
2023-02-07T19:34:38.219Z,102792.69
2023-02-07T19:37:06.794Z,102800.16
2023-02-07T19:39:35.825Z,102796.22
2023-02-07T19:42:04.618Z,102796.13
2023-02-07T19:44:33.626Z,102797.44
2023-02-07T19:47:02.273Z,102790.94
2023-02-07T19:49:31.161Z,102811.00
2023-02-07T19:51:59.721Z,102805.44
2023-02-07T19:54:28.594Z,102809.59
2023-02-07T19:56:57.577Z,102803.28
2023-02-07T19:59:26.503Z,102806.75
2023-02-07T20:01:56.141Z,102815.34
2023-02-07T20:04:25.142Z,102820.88
2023-02-07T20:06:53.751Z,102824.56
2023-02-07T20:09:22.803Z,102827.31
2023-02-07T20:11:52.541Z,102832.84
2023-02-07T20:14:21.794Z,102825.88
2023-02-07T20:16:50.548Z,102815.84
2023-02-07T20:19:20.372Z,102825.81
2023-02-07T20:21:49.281Z,102827.47
2023-02-07T20:24:18.526Z,102823.44
2023-02-07T20:26:47.191Z,102828.97
2023-02-07T20:29:17.308Z,102832.84
2023-02-07T20:31:47.152Z,102837.44
2023-02-07T20:34:16.378Z,102850.78
2023-02-07T20:36:45.159Z,102838.78
2023-02-07T20:39:17.325Z,102842.38
2023-02-07T20:41:47.118Z,102840.94
2023-02-07T20:44:23.312Z,102851.56
2023-02-07T20:46:52.011Z,102849.84
2023-02-07T20:49:28.600Z,102839.66
2023-02-07T20:51:58.702Z,102845.03
2023-02-07T20:54:29.316Z,102851.31
2023-02-07T20:56:58.224Z,102859.56
2023-02-07T20:59:30.288Z,102847.50
2023-02-07T21:01:58.942Z,102841.53
2023-02-07T21:04:28.686Z,102841.66
2023-02-07T21:06:57.353Z,102850.16
2023-02-07T21:09:28.642Z,102845.66
2023-02-07T21:11:57.503Z,102848.81
2023-02-07T21:14:29.803Z,102845.75
2023-02-07T21:17:01.695Z,102856.59
2023-02-07T21:19:33.634Z,102863.50
2023-02-07T21:22:02.270Z,102856.75
2023-02-07T21:24:31.449Z,102859.91
2023-02-07T21:26:59.979Z,102855.94
2023-02-07T21:29:29.279Z,102861.94
2023-02-07T21:31:57.841Z,102857.00
2023-02-07T21:34:26.829Z,102856.50
2023-02-07T21:36:55.370Z,102847.25
2023-02-07T21:39:25.066Z,102854.00
2023-02-07T21:41:53.586Z,102848.56
2023-02-07T21:44:22.454Z,102851.81
2023-02-07T21:46:52.443Z,102845.34
2023-02-07T21:49:22.039Z,102841.59
2023-02-07T21:51:54.013Z,102849.75
2023-02-07T21:54:22.942Z,102852.25
2023-02-07T21:56:52.016Z,102857.56
2023-02-07T21:59:21.489Z,102854.84
2023-02-07T22:01:50.290Z,102850.94
2023-02-07T22:04:19.608Z,102855.25
2023-02-07T22:06:49.497Z,102851.00
2023-02-07T22:09:19.775Z,102846.84
2023-02-07T22:11:48.360Z,102848.97
2023-02-07T22:14:17.548Z,102853.50
2023-02-07T22:16:46.790Z,102853.81
2023-02-07T22:19:17.570Z,102851.44
2023-02-07T22:21:46.312Z,102857.88
2023-02-07T22:24:16.610Z,102861.69
2023-02-07T22:26:45.454Z,102851.78
2023-02-07T22:29:14.466Z,102857.03
2023-02-07T22:31:43.083Z,102853.91
2023-02-07T22:34:13.741Z,102862.19
2023-02-07T22:36:43.420Z,102857.22
2023-02-07T22:39:13.750Z,102852.88
2023-02-07T22:41:42.293Z,102854.94
2023-02-07T22:44:11.776Z,102868.53
2023-02-07T22:46:40.523Z,102854.44
2023-02-07T22:49:09.303Z,102854.75
2023-02-07T22:51:38.180Z,102868.13
2023-02-07T22:54:15.536Z,102860.28
2023-02-07T22:56:45.117Z,102860.50
2023-02-07T22:59:14.750Z,102848.75
2023-02-07T23:01:44.426Z,102859.13
2023-02-07T23:04:17.791Z,102862.00
2023-02-07T23:06:46.862Z,102866.56
2023-02-07T23:09:16.340Z,102870.38
2023-02-07T23:11:44.901Z,102862.63
2023-02-07T23:14:13.825Z,102861.03
2023-02-07T23:16:42.386Z,102854.25
2023-02-07T23:19:14.819Z,102857.84
2023-02-07T23:21:43.994Z,102861.59
2023-02-07T23:24:12.762Z,102836.69
2023-02-07T23:26:41.409Z,102853.44
2023-02-07T23:29:10.245Z,102863.97
2023-02-07T23:31:38.744Z,102864.84
2023-02-07T23:34:09.794Z,102857.06
2023-02-07T23:36:38.776Z,102854.69
2023-02-07T23:39:07.717Z,102849.59
2023-02-07T23:41:36.407Z,102839.94
2023-02-07T23:44:05.604Z,102839.41
2023-02-07T23:46:34.810Z,102843.81
2023-02-07T23:49:05.533Z,102843.06
2023-02-07T23:51:34.151Z,102832.66
2023-02-07T23:54:03.968Z,102830.16
2023-02-07T23:56:32.689Z,102826.66
2023-02-07T23:59:01.588Z,102821.44
